createdAt,value
2023-01-17T00:00:33.811Z,9.430449
2023-01-17T00:01:33.863Z,9.430403
2023-01-17T00:02:33.865Z,9.430414
2023-01-17T00:03:33.787Z,9.430400
2023-01-17T00:04:33.741Z,9.430393
2023-01-17T00:05:33.772Z,9.430365
2023-01-17T00:06:33.743Z,9.430389
2023-01-17T00:07:33.743Z,9.430372
2023-01-17T00:08:33.793Z,9.430337
2023-01-17T00:09:33.725Z,9.430380
2023-01-17T00:10:33.682Z,9.430364
2023-01-17T00:11:33.704Z,9.430386
2023-01-17T00:12:33.655Z,9.430348
2023-01-17T00:13:33.644Z,9.430346
2023-01-17T00:14:33.656Z,9.430314
2023-01-17T00:15:33.671Z,9.430328
2023-01-17T00:16:33.658Z,9.430346
2023-01-17T00:17:34.269Z,9.430370
2023-01-17T00:18:33.576Z,9.430349
2023-01-17T00:19:33.570Z,9.430341
2023-01-17T00:20:33.592Z,9.430358
2023-01-17T00:21:34.262Z,9.430381
2023-01-17T00:22:33.587Z,9.430348
2023-01-17T00:23:33.575Z,9.430361
2023-01-17T00:24:33.561Z,9.430344
2023-01-17T00:25:33.528Z,9.430361
2023-01-17T00:26:33.496Z,9.430353
2023-01-17T00:27:33.553Z,9.430326
2023-01-17T00:28:33.608Z,9.430305
2023-01-17T00:29:33.483Z,9.430340
2023-01-17T00:30:33.513Z,9.430346
2023-01-17T00:31:33.495Z,9.430380
2023-01-17T00:32:33.470Z,9.430352
2023-01-17T00:33:34.470Z,9.430336
2023-01-17T00:34:33.413Z,9.430340
2023-01-17T00:35:33.400Z,9.430356
2023-01-17T00:36:33.393Z,9.430326
2023-01-17T00:37:33.419Z,9.430324
2023-01-17T00:38:33.401Z,9.430355
2023-01-17T00:39:33.501Z,9.430355
2023-01-17T00:40:33.423Z,9.430337
2023-01-17T00:41:33.433Z,9.430293
2023-01-17T00:42:33.423Z,9.430354
2023-01-17T00:43:33.370Z,9.430376
2023-01-17T00:44:33.408Z,9.430318
2023-01-17T00:45:33.364Z,9.430273
2023-01-17T00:46:33.409Z,9.430336
2023-01-17T00:47:33.303Z,9.430328
2023-01-17T00:48:33.311Z,9.430324
2023-01-17T00:49:33.312Z,9.430335
2023-01-17T00:50:33.303Z,9.430389
2023-01-17T00:51:33.307Z,9.430407
2023-01-17T00:52:33.309Z,9.430343
2023-01-17T00:53:33.308Z,9.430357
2023-01-17T00:54:33.242Z,9.430311
2023-01-17T00:55:33.263Z,9.430296
2023-01-17T00:56:33.259Z,9.430320
2023-01-17T00:57:33.213Z,9.430357
2023-01-17T00:58:33.235Z,9.430269
2023-01-17T00:59:33.249Z,9.430333
2023-01-17T01:00:33.324Z,9.430352
2023-01-17T01:01:33.239Z,9.430292
2023-01-17T01:02:33.226Z,9.430309
2023-01-17T01:03:33.174Z,9.430266
2023-01-17T01:04:33.207Z,9.430281
2023-01-17T01:05:33.138Z,9.430312
2023-01-17T01:06:33.229Z,9.430289
2023-01-17T01:07:33.090Z,9.430346
2023-01-17T01:08:33.060Z,9.430320
2023-01-17T01:09:33.155Z,9.430317
2023-01-17T01:10:33.071Z,9.430308
2023-01-17T01:11:33.101Z,9.430320
2023-01-17T01:12:33.072Z,9.430283
2023-01-17T01:13:33.075Z,9.430284
2023-01-17T01:14:33.044Z,9.430359
2023-01-17T01:15:33.136Z,9.430322
2023-01-17T01:16:33.077Z,9.430304
2023-01-17T01:17:33.062Z,9.430297
2023-01-17T01:18:33.012Z,9.430343
2023-01-17T01:19:33.008Z,9.430365
2023-01-17T01:20:32.957Z,9.430346
2023-01-17T01:21:32.964Z,9.430327
2023-01-17T01:22:32.985Z,9.430329
2023-01-17T01:23:32.949Z,9.430333
2023-01-17T01:24:32.932Z,9.430345
2023-01-17T01:25:32.924Z,9.430333
2023-01-17T01:26:32.931Z,9.430309
2023-01-17T01:27:32.954Z,9.430306
2023-01-17T01:28:32.908Z,9.430343
2023-01-17T01:29:32.897Z,9.430318
2023-01-17T01:30:32.927Z,9.430234
2023-01-17T01:31:32.879Z,9.430284
2023-01-17T01:32:32.843Z,9.430311
2023-01-17T01:33:32.863Z,9.430318
2023-01-17T01:34:32.871Z,9.430326
2023-01-17T01:35:32.834Z,9.430361
2023-01-17T01:36:32.844Z,9.430344
2023-01-17T01:37:32.794Z,9.430314
2023-01-17T01:38:32.832Z,9.430365
2023-01-17T01:39:32.789Z,9.430389
2023-01-17T01:40:33.360Z,9.430398
2023-01-17T01:41:32.762Z,9.430420
2023-01-17T01:42:32.753Z,9.430341
2023-01-17T01:43:32.811Z,9.430308
2023-01-17T01:44:32.725Z,9.430316
2023-01-17T01:45:32.808Z,9.430329
2023-01-17T01:46:32.737Z,9.430302
2023-01-17T01:47:33.407Z,9.430252
2023-01-17T01:48:32.694Z,9.430261
2023-01-17T01:49:32.677Z,9.430239
2023-01-17T01:50:32.677Z,9.430389
2023-01-17T01:51:32.631Z,9.430402
2023-01-17T01:52:32.659Z,9.430337
2023-01-17T01:53:32.618Z,9.430316
2023-01-17T01:54:32.614Z,9.430356
2023-01-17T01:55:32.635Z,9.430416
2023-01-17T01:56:32.616Z,9.430429
2023-01-17T01:57:32.581Z,9.430388
2023-01-17T01:58:32.580Z,9.430397
2023-01-17T01:59:32.562Z,9.430365
2023-01-17T02:00:32.582Z,9.430375
2023-01-17T02:01:32.692Z,9.430343
2023-01-17T02:02:32.567Z,9.430312
2023-01-17T02:03:32.589Z,9.430423
2023-01-17T02:04:32.540Z,9.430354
2023-01-17T02:05:32.517Z,9.430377
2023-01-17T02:06:32.490Z,9.430434
2023-01-17T02:07:32.454Z,9.430400
2023-01-17T02:08:32.510Z,9.430346
2023-01-17T02:09:32.468Z,9.430373
2023-01-17T02:10:32.455Z,9.430356
2023-01-17T02:11:32.464Z,9.430350
2023-01-17T02:12:32.461Z,9.430305
2023-01-17T02:13:32.434Z,9.430346
2023-01-17T02:14:32.395Z,9.430307
2023-01-17T02:15:32.389Z,9.430277
2023-01-17T02:16:32.426Z,9.430226
2023-01-17T02:17:32.405Z,9.430356
2023-01-17T02:18:33.239Z,9.430404
2023-01-17T02:19:32.386Z,9.430240
2023-01-17T02:20:32.392Z,9.430308
2023-01-17T02:21:32.336Z,9.430406
2023-01-17T02:22:32.413Z,9.430368
2023-01-17T02:23:32.331Z,9.430407
2023-01-17T02:24:32.262Z,9.430329
2023-01-17T02:25:32.283Z,9.430364
2023-01-17T02:26:32.282Z,9.430269
2023-01-17T02:27:32.295Z,9.430343
2023-01-17T02:28:32.244Z,9.430313
2023-01-17T02:29:32.261Z,9.430368
2023-01-17T02:30:32.250Z,9.430366
2023-01-17T02:31:32.260Z,9.430337
2023-01-17T02:32:32.230Z,9.430270
2023-01-17T02:33:32.244Z,9.430321
2023-01-17T02:34:32.203Z,9.430319
2023-01-17T02:35:32.171Z,9.430311
2023-01-17T02:36:32.163Z,9.430309
2023-01-17T02:37:32.140Z,9.430322
2023-01-17T02:38:32.200Z,9.430346
2023-01-17T02:39:32.167Z,9.430283
2023-01-17T02:40:32.127Z,9.430326
2023-01-17T02:41:32.876Z,9.430276
2023-01-17T02:42:32.143Z,9.430303
2023-01-17T02:43:32.188Z,9.430351
2023-01-17T02:44:32.121Z,9.430314
2023-01-17T02:45:32.105Z,9.430358
2023-01-17T02:46:32.111Z,9.430331
2023-01-17T02:47:32.078Z,9.430305
2023-01-17T02:48:32.084Z,9.430268
2023-01-17T02:49:32.075Z,9.430266
2023-01-17T02:50:32.060Z,9.430208
2023-01-17T02:51:32.034Z,9.430263
2023-01-17T02:52:32.013Z,9.430272
2023-01-17T02:53:31.983Z,9.430293
2023-01-17T02:54:31.996Z,9.430316
2023-01-17T02:55:31.977Z,9.430305
2023-01-17T02:56:32.699Z,9.430333
2023-01-17T02:57:31.930Z,9.430326
2023-01-17T02:58:31.943Z,9.430305
2023-01-17T02:59:32.848Z,9.430353
2023-01-17T03:00:31.890Z,9.430351
2023-01-17T03:01:32.097Z,9.430337
2023-01-17T03:02:32.026Z,9.430285
2023-01-17T03:03:31.863Z,9.430268
2023-01-17T03:04:31.890Z,9.430326
2023-01-17T03:05:31.860Z,9.430305
2023-01-17T03:06:31.842Z,9.430358
2023-01-17T03:07:31.870Z,9.430356
2023-01-17T03:08:31.846Z,9.430366
2023-01-17T03:09:31.830Z,9.430314
2023-01-17T03:10:31.794Z,9.430348
2023-01-17T03:11:31.822Z,9.430329
2023-01-17T03:12:31.779Z,9.430330
2023-01-17T03:13:31.809Z,9.430326
2023-01-17T03:14:31.797Z,9.430313
2023-01-17T03:15:31.754Z,9.430345
2023-01-17T03:16:31.787Z,9.430363
2023-01-17T03:17:31.783Z,9.430350
2023-01-17T03:18:31.769Z,9.430430
2023-01-17T03:19:31.736Z,9.430334
2023-01-17T03:20:31.725Z,9.430340
2023-01-17T03:21:31.722Z,9.430434
2023-01-17T03:22:31.645Z,9.430350
2023-01-17T03:23:31.650Z,9.430341
2023-01-17T03:24:31.688Z,9.430411
2023-01-17T03:25:31.637Z,9.430373
2023-01-17T03:26:31.680Z,9.430326
2023-01-17T03:27:31.644Z,9.430386
2023-01-17T03:28:31.646Z,9.430356
2023-01-17T03:29:31.677Z,9.430316
2023-01-17T03:30:31.631Z,9.430381
2023-01-17T03:31:31.553Z,9.430381
2023-01-17T03:32:31.553Z,9.430367
2023-01-17T03:33:31.575Z,9.430368
2023-01-17T03:34:31.615Z,9.430334
2023-01-17T03:35:31.553Z,9.430314
2023-01-17T03:36:31.532Z,9.430351
2023-01-17T03:37:31.584Z,9.430460
2023-01-17T03:38:31.521Z,9.430382
2023-01-17T03:39:31.503Z,9.430383
2023-01-17T03:40:31.485Z,9.430382
2023-01-17T03:41:31.530Z,9.430340
2023-01-17T03:42:31.575Z,9.430333
2023-01-17T03:43:31.482Z,9.430355
2023-01-17T03:44:31.423Z,9.430351
2023-01-17T03:45:31.476Z,9.430400
2023-01-17T03:46:31.405Z,9.430380
2023-01-17T03:47:31.412Z,9.430333
2023-01-17T03:48:31.457Z,9.430390
2023-01-17T03:49:31.397Z,9.430409
2023-01-17T03:50:31.442Z,9.430394
2023-01-17T03:51:31.400Z,9.430367
2023-01-17T03:52:31.360Z,9.430380
2023-01-17T03:53:31.394Z,9.430356
2023-01-17T03:54:31.424Z,9.430344
2023-01-17T03:55:31.320Z,9.430335
2023-01-17T03:56:31.352Z,9.430345
2023-01-17T03:57:31.301Z,9.430342
2023-01-17T03:58:31.295Z,9.430367
2023-01-17T03:59:31.292Z,9.430390
2023-01-17T04:00:31.371Z,9.430331
2023-01-17T04:01:31.396Z,9.430345
2023-01-17T04:02:31.293Z,9.430371
2023-01-17T04:03:31.209Z,9.430404
2023-01-17T04:04:31.262Z,9.430410
2023-01-17T04:05:31.208Z,9.430332
2023-01-17T04:06:31.238Z,9.430331
2023-01-17T04:07:31.213Z,9.430360
2023-01-17T04:08:31.213Z,9.430387
2023-01-17T04:09:31.144Z,9.430401
2023-01-17T04:10:31.196Z,9.430407
2023-01-17T04:11:31.172Z,9.430413
2023-01-17T04:12:31.157Z,9.430429
2023-01-17T04:13:31.150Z,9.430365
2023-01-17T04:14:31.136Z,9.430387
2023-01-17T04:15:31.101Z,9.430359
2023-01-17T04:16:31.159Z,9.430358
2023-01-17T04:17:31.092Z,9.430358
2023-01-17T04:18:31.073Z,9.430351
2023-01-17T04:19:31.104Z,9.430362
2023-01-17T04:20:31.074Z,9.430351
2023-01-17T04:21:31.099Z,9.430381
2023-01-17T04:22:31.045Z,9.430387
2023-01-17T04:23:31.075Z,9.430401
2023-01-17T04:24:31.027Z,9.430367
2023-01-17T04:25:37.757Z,9.430364
2023-01-17T04:26:31.045Z,9.430387
2023-01-17T04:27:30.974Z,9.430345
2023-01-17T04:28:30.961Z,9.430375
2023-01-17T04:29:30.963Z,9.430357
2023-01-17T04:30:31.014Z,9.430355
2023-01-17T04:31:31.022Z,9.430374
2023-01-17T04:32:30.997Z,9.430392
2023-01-17T04:33:30.964Z,9.430381
2023-01-17T04:34:30.993Z,9.430367
2023-01-17T04:35:30.900Z,9.430375
2023-01-17T04:36:30.910Z,9.430388
2023-01-17T04:37:30.848Z,9.430351
2023-01-17T04:38:30.920Z,9.430359
2023-01-17T04:39:31.028Z,9.430355
2023-01-17T04:40:30.975Z,9.430382
2023-01-17T04:41:30.913Z,9.430406
2023-01-17T04:42:30.863Z,9.430391
2023-01-17T04:43:30.868Z,9.430367
2023-01-17T04:44:30.893Z,9.430433
2023-01-17T04:45:30.918Z,9.430403
2023-01-17T04:46:30.884Z,9.430457
2023-01-17T04:47:30.783Z,9.430409
2023-01-17T04:48:30.874Z,9.430387
2023-01-17T04:49:30.796Z,9.430366
2023-01-17T04:50:30.817Z,9.430374
2023-01-17T04:51:30.788Z,9.430388
2023-01-17T04:52:30.719Z,9.430384
2023-01-17T04:53:30.755Z,9.430352
2023-01-17T04:54:30.712Z,9.430380
2023-01-17T04:55:30.909Z,9.430375
2023-01-17T04:56:30.743Z,9.430388
2023-01-17T04:57:30.746Z,9.430408
2023-01-17T04:58:30.659Z,9.430325
2023-01-17T04:59:30.676Z,9.430298
2023-01-17T05:00:30.736Z,9.430319
2023-01-17T05:01:30.763Z,9.430351
2023-01-17T05:02:30.698Z,9.430392
2023-01-17T05:03:30.641Z,9.430391
2023-01-17T05:04:30.698Z,9.430361
2023-01-17T05:05:30.650Z,9.430387
2023-01-17T05:06:30.638Z,9.430377
2023-01-17T05:07:30.587Z,9.430348
2023-01-17T05:08:30.591Z,9.430368
2023-01-17T05:09:30.608Z,9.430380
2023-01-17T05:10:30.641Z,9.430361
2023-01-17T05:11:30.652Z,9.430370
2023-01-17T05:12:30.659Z,9.430384
2023-01-17T05:13:30.550Z,9.430360
2023-01-17T05:14:30.593Z,9.430355
2023-01-17T05:15:30.526Z,9.430390
2023-01-17T05:16:30.545Z,9.430386
2023-01-17T05:17:30.485Z,9.430381
2023-01-17T05:18:30.594Z,9.430387
2023-01-17T05:19:31.353Z,9.430356
2023-01-17T05:20:30.544Z,9.430401
2023-01-17T05:21:30.465Z,9.430372
2023-01-17T05:22:30.592Z,9.430373
2023-01-17T05:23:30.481Z,9.430420
2023-01-17T05:24:30.462Z,9.430399
2023-01-17T05:25:30.406Z,9.430357
2023-01-17T05:26:30.448Z,9.430384
2023-01-17T05:27:30.428Z,9.430375
2023-01-17T05:28:30.552Z,9.430357
2023-01-17T05:29:30.544Z,9.430353
2023-01-17T05:30:30.344Z,9.430348
2023-01-17T05:31:30.379Z,9.430403
2023-01-17T05:32:30.456Z,9.430403
2023-01-17T05:33:30.397Z,9.430390
2023-01-17T05:34:30.369Z,9.430372
2023-01-17T05:35:30.294Z,9.430391
2023-01-17T05:36:30.331Z,9.430369
2023-01-17T05:37:30.340Z,9.430393
2023-01-17T05:38:30.244Z,9.430412
2023-01-17T05:39:30.268Z,9.430412
2023-01-17T05:40:30.306Z,9.430387
2023-01-17T05:41:30.297Z,9.430393
2023-01-17T05:42:30.241Z,9.430381
2023-01-17T05:43:30.253Z,9.430355
2023-01-17T05:44:30.282Z,9.430405
2023-01-17T05:45:30.176Z,9.430381
2023-01-17T05:46:30.207Z,9.430367
2023-01-17T05:47:30.145Z,9.430303
2023-01-17T05:48:30.158Z,9.430353
2023-01-17T05:49:30.173Z,9.430352
2023-01-17T05:50:30.212Z,9.430408
2023-01-17T05:51:30.146Z,9.430412
2023-01-17T05:52:30.147Z,9.430408
2023-01-17T05:53:30.223Z,9.430412
2023-01-17T05:54:30.215Z,9.430417
2023-01-17T05:55:30.182Z,9.430339
2023-01-17T05:56:30.098Z,9.430388
2023-01-17T05:57:30.131Z,9.430367
2023-01-17T05:58:30.067Z,9.430469
2023-01-17T05:59:36.969Z,9.430476
2023-01-17T06:00:31.093Z,9.430442
2023-01-17T06:01:30.139Z,9.430460
2023-01-17T06:02:30.123Z,9.430516
2023-01-17T06:03:30.067Z,9.430456
2023-01-17T06:04:30.070Z,9.430413
2023-01-17T06:05:30.104Z,9.430445
2023-01-17T06:06:30.134Z,9.430456
2023-01-17T06:07:29.963Z,9.430450
2023-01-17T06:08:30.006Z,9.430465
2023-01-17T06:09:30.061Z,9.430389
2023-01-17T06:10:29.935Z,9.430382
2023-01-17T06:11:29.960Z,9.430373
2023-01-17T06:12:29.890Z,9.430373
2023-01-17T06:13:29.914Z,9.430355
2023-01-17T06:14:29.920Z,9.430387
2023-01-17T06:15:29.917Z,9.430325
2023-01-17T06:16:29.883Z,9.430409
2023-01-17T06:17:30.042Z,9.430411
2023-01-17T06:18:29.927Z,9.430337
2023-01-17T06:19:30.040Z,9.430303
2023-01-17T06:20:29.929Z,9.430366
2023-01-17T06:21:29.908Z,9.430317
2023-01-17T06:22:29.914Z,9.430367
2023-01-17T06:23:29.909Z,9.430373
2023-01-17T06:24:29.950Z,9.430402
2023-01-17T06:25:29.924Z,9.430396
2023-01-17T06:26:29.934Z,9.430385
2023-01-17T06:27:29.952Z,9.430361
2023-01-17T06:28:29.856Z,9.430375
2023-01-17T06:29:29.841Z,9.430362
2023-01-17T06:30:29.797Z,9.430373
2023-01-17T06:31:29.815Z,9.430351
2023-01-17T06:32:29.746Z,9.430381
2023-01-17T06:33:29.766Z,9.430421
2023-01-17T06:34:29.713Z,9.430429
2023-01-17T06:35:29.688Z,9.430418
2023-01-17T06:36:29.720Z,9.430406
2023-01-17T06:37:29.667Z,9.430409
2023-01-17T06:38:29.739Z,9.430410
2023-01-17T06:39:29.837Z,9.430440
2023-01-17T06:40:29.615Z,9.430429
2023-01-17T06:41:29.647Z,9.430389
2023-01-17T06:42:29.666Z,9.430399
2023-01-17T06:43:29.645Z,9.430366
2023-01-17T06:44:29.644Z,9.430381
2023-01-17T06:45:29.710Z,9.430378
2023-01-17T06:46:29.746Z,9.430331
2023-01-17T06:47:29.581Z,9.430383
2023-01-17T06:48:29.551Z,9.430404
2023-01-17T06:49:29.570Z,9.430393
2023-01-17T06:50:29.554Z,9.430411
2023-01-17T06:51:29.541Z,9.430407
2023-01-17T06:52:29.531Z,9.430445
2023-01-17T06:53:29.493Z,9.430414
2023-01-17T06:54:29.550Z,9.430379
2023-01-17T06:55:29.485Z,9.430398
2023-01-17T06:56:29.511Z,9.430392
2023-01-17T06:57:29.512Z,9.430388
2023-01-17T06:58:30.109Z,9.430355
2023-01-17T06:59:29.479Z,9.430373
2023-01-17T07:00:40.947Z,9.430363
2023-01-17T07:01:30.528Z,9.430367
2023-01-17T07:02:29.460Z,9.430345
2023-01-17T07:03:29.466Z,9.430385
2023-01-17T07:04:29.417Z,9.430401
2023-01-17T07:05:29.432Z,9.430387
2023-01-17T07:06:29.325Z,9.430397
2023-01-17T07:07:29.370Z,9.430372
2023-01-17T07:08:29.390Z,9.430386
2023-01-17T07:09:29.310Z,9.430360
2023-01-17T07:10:29.261Z,9.430335
2023-01-17T07:11:29.314Z,9.430341
2023-01-17T07:12:29.330Z,9.430369
2023-01-17T07:13:29.275Z,9.430351
2023-01-17T07:14:29.308Z,9.430314
2023-01-17T07:15:29.236Z,9.430327
2023-01-17T07:16:29.333Z,9.430372
2023-01-17T07:17:29.871Z,9.430388
2023-01-17T07:18:29.241Z,9.430339
2023-01-17T07:19:29.352Z,9.430377
2023-01-17T07:20:29.225Z,9.430357
2023-01-17T07:21:29.223Z,9.430324
2023-01-17T07:22:29.206Z,9.430285
2023-01-17T07:23:29.840Z,9.430363
2023-01-17T07:24:29.166Z,9.430280
2023-01-17T07:25:29.164Z,9.430315
2023-01-17T07:26:29.115Z,9.430312
2023-01-17T07:27:29.139Z,9.430336
2023-01-17T07:28:29.160Z,9.430333
2023-01-17T07:29:29.150Z,9.430341
2023-01-17T07:30:29.083Z,9.430318
2023-01-17T07:31:29.129Z,9.430301
2023-01-17T07:32:29.086Z,9.430360
2023-01-17T07:33:29.052Z,9.430376
2023-01-17T07:34:29.052Z,9.430400
2023-01-17T07:35:29.023Z,9.430388
2023-01-17T07:36:29.027Z,9.430356
2023-01-17T07:37:29.040Z,9.430339
2023-01-17T07:38:28.983Z,9.430349
2023-01-17T07:39:28.972Z,9.430373
2023-01-17T07:40:28.960Z,9.430332
2023-01-17T07:41:28.965Z,9.430308
2023-01-17T07:42:28.989Z,9.430366
2023-01-17T07:44:02.391Z,9.430297
2023-01-17T07:45:01.325Z,9.430355
2023-01-17T07:45:28.909Z,9.430335
2023-01-17T07:46:28.933Z,9.430413
2023-01-17T07:47:28.909Z,9.430414
2023-01-17T07:48:28.915Z,9.430383
2023-01-17T07:49:28.884Z,9.430344
2023-01-17T07:50:28.883Z,9.430325
2023-01-17T07:51:28.899Z,9.430354
2023-01-17T07:52:28.838Z,9.430380
2023-01-17T07:53:28.802Z,9.430346
2023-01-17T07:54:28.867Z,9.430348
2023-01-17T07:55:28.816Z,9.430359
2023-01-17T07:56:28.808Z,9.430346
2023-01-17T07:57:28.822Z,9.430333
2023-01-17T07:58:28.784Z,9.430337
2023-01-17T07:59:28.746Z,9.430350
2023-01-17T08:00:28.769Z,9.430349
2023-01-17T08:01:28.827Z,9.430351
2023-01-17T08:02:28.780Z,9.430350
2023-01-17T08:03:28.767Z,9.430328
2023-01-17T08:04:28.788Z,9.430306
2023-01-17T08:05:28.744Z,9.430290
2023-01-17T08:06:28.701Z,9.430297
2023-01-17T08:07:28.734Z,9.430296
2023-01-17T08:08:28.680Z,9.430300
2023-01-17T08:09:28.695Z,9.430242
2023-01-17T08:10:28.685Z,9.430322
2023-01-17T08:11:28.628Z,9.430292
2023-01-17T08:12:28.639Z,9.430312
2023-01-17T08:13:29.936Z,9.430321
2023-01-17T08:14:29.616Z,9.430332
2023-01-17T08:15:28.608Z,9.430349
2023-01-17T08:16:28.728Z,9.430314
2023-01-17T08:17:29.314Z,9.430292
2023-01-17T08:18:29.290Z,9.430340
2023-01-17T08:19:28.571Z,9.430321
2023-01-17T08:20:28.594Z,9.430291
2023-01-17T08:21:28.541Z,9.430301
2023-01-17T08:22:28.542Z,9.430362
2023-01-17T08:23:28.531Z,9.430320
2023-01-17T08:24:28.534Z,9.430264
2023-01-17T08:25:28.502Z,9.430274
2023-01-17T08:26:28.519Z,9.430276
2023-01-17T08:27:28.501Z,9.430312
2023-01-17T08:28:28.480Z,9.430317
2023-01-17T08:29:28.482Z,9.430298
2023-01-17T08:30:28.443Z,9.430300
2023-01-17T08:31:28.486Z,9.430300
2023-01-17T08:32:28.422Z,9.430319
2023-01-17T08:33:28.496Z,9.430273
2023-01-17T08:34:28.399Z,9.430282
2023-01-17T08:35:28.420Z,9.430290
2023-01-17T08:36:28.385Z,9.430288
2023-01-17T08:37:28.383Z,9.430290
2023-01-17T08:38:28.360Z,9.430317
2023-01-17T08:39:28.380Z,9.430315
2023-01-17T08:40:28.363Z,9.430334
2023-01-17T08:41:28.352Z,9.430298
2023-01-17T08:42:28.310Z,9.430326
2023-01-17T08:43:28.347Z,9.430372
2023-01-17T08:44:28.295Z,9.430297
2023-01-17T08:45:28.376Z,9.430221
2023-01-17T08:46:28.252Z,9.430242
2023-01-17T08:47:28.263Z,9.430339
2023-01-17T08:48:29.205Z,9.430386
2023-01-17T08:49:28.802Z,9.430434
2023-01-17T08:50:28.211Z,9.430396
2023-01-17T08:51:28.218Z,9.430286
2023-01-17T08:52:28.208Z,9.430316
2023-01-17T08:53:28.232Z,9.430419
2023-01-17T08:54:28.808Z,9.430333
2023-01-17T08:55:28.223Z,9.430318
2023-01-17T08:56:28.207Z,9.430345
2023-01-17T08:57:28.147Z,9.430322
2023-01-17T08:58:30.311Z,9.430367
2023-01-17T08:59:28.132Z,9.430336
2023-01-17T09:00:28.116Z,9.430345
2023-01-17T09:01:28.327Z,9.430326
2023-01-17T09:02:28.142Z,9.430346
2023-01-17T09:03:28.083Z,9.430361
2023-01-17T09:04:28.154Z,9.430300
2023-01-17T09:05:28.087Z,9.430293
2023-01-17T09:06:28.782Z,9.430329
2023-01-17T09:07:28.085Z,9.430347
2023-01-17T09:08:28.024Z,9.430377
2023-01-17T09:09:28.040Z,9.430363
2023-01-17T09:10:28.044Z,9.430367
2023-01-17T09:11:28.058Z,9.430335
2023-01-17T09:12:28.012Z,9.430348
2023-01-17T09:13:28.093Z,9.430336
2023-01-17T09:14:27.992Z,9.430365
2023-01-17T09:15:27.985Z,9.430332
2023-01-17T09:16:28.014Z,9.430343
2023-01-17T09:17:27.955Z,9.430327
2023-01-17T09:18:27.968Z,9.430365
2023-01-17T09:19:27.964Z,9.430329
2023-01-17T09:20:27.941Z,9.430341
2023-01-17T09:21:27.927Z,9.430324
2023-01-17T09:22:27.938Z,9.430347
2023-01-17T09:23:27.985Z,9.430331
2023-01-17T09:24:27.886Z,9.430332
2023-01-17T09:25:27.876Z,9.430367
2023-01-17T09:26:27.877Z,9.430365
2023-01-17T09:27:27.858Z,9.430369
2023-01-17T09:28:27.887Z,9.430321
2023-01-17T09:29:27.883Z,9.430355
2023-01-17T09:30:27.851Z,9.430344
2023-01-17T09:31:27.847Z,9.430382
2023-01-17T09:32:27.807Z,9.430333
2023-01-17T09:33:27.791Z,9.430339
2023-01-17T09:34:27.834Z,9.430278
2023-01-17T09:35:27.759Z,9.430328
2023-01-17T09:36:27.733Z,9.430340
2023-01-17T09:37:27.757Z,9.430370
2023-01-17T09:38:27.756Z,9.430298
2023-01-17T09:39:27.810Z,9.430330
2023-01-17T09:40:27.724Z,9.430359
2023-01-17T09:41:27.861Z,9.430351
2023-01-17T09:42:27.679Z,9.430328
2023-01-17T09:43:28.666Z,9.430282
2023-01-17T09:44:27.678Z,9.430325
2023-01-17T09:45:27.707Z,9.430348
2023-01-17T09:46:27.636Z,9.430338
2023-01-17T09:47:27.715Z,9.430272
2023-01-17T09:48:27.628Z,9.430284
2023-01-17T09:49:27.619Z,9.430320
2023-01-17T09:50:27.612Z,9.430312
2023-01-17T09:51:27.615Z,9.430311
2023-01-17T09:52:27.648Z,9.430319
2023-01-17T09:53:27.587Z,9.430321
2023-01-17T09:54:27.571Z,9.430295
2023-01-17T09:55:27.616Z,9.430302
2023-01-17T09:56:27.526Z,9.430296
2023-01-17T09:57:27.560Z,9.430326
2023-01-17T09:58:27.497Z,9.430331
2023-01-17T09:59:33.270Z,9.430334
2023-01-17T10:00:28.529Z,9.430337
2023-01-17T10:01:27.795Z,9.430352
2023-01-17T10:02:27.675Z,9.430385
2023-01-17T10:03:27.587Z,9.430313
2023-01-17T10:04:27.496Z,9.430309
2023-01-17T10:05:27.440Z,9.430292
2023-01-17T10:06:27.463Z,9.430302
2023-01-17T10:07:27.427Z,9.430288
2023-01-17T10:08:27.414Z,9.430321
2023-01-17T10:09:27.386Z,9.430266
2023-01-17T10:10:27.405Z,9.430292
2023-01-17T10:11:27.367Z,9.430331
2023-01-17T10:12:27.393Z,9.430329
2023-01-17T10:13:27.395Z,9.430363
2023-01-17T10:14:27.331Z,9.430364
2023-01-17T10:15:27.332Z,9.430342
2023-01-17T10:16:27.332Z,9.430305
2023-01-17T10:17:27.345Z,9.430330
2023-01-17T10:18:30.427Z,9.430264
2023-01-17T10:19:28.317Z,9.430275
2023-01-17T10:20:27.329Z,9.430296
2023-01-17T10:21:27.265Z,9.430289
2023-01-17T10:22:27.269Z,9.430297
2023-01-17T10:23:27.301Z,9.430332
2023-01-17T10:24:27.247Z,9.430338
2023-01-17T10:25:27.213Z,9.430404
2023-01-17T10:26:27.245Z,9.430345
2023-01-17T10:27:28.179Z,9.430346
2023-01-17T10:28:27.198Z,9.430286
2023-01-17T10:29:27.202Z,9.430223
2023-01-17T10:30:27.181Z,9.430264
2023-01-17T10:31:27.158Z,9.430315
2023-01-17T10:32:27.181Z,9.430367
2023-01-17T10:33:27.179Z,9.430350
2023-01-17T10:34:27.111Z,9.430378
2023-01-17T10:35:27.169Z,9.430419
2023-01-17T10:36:27.114Z,9.430391
2023-01-17T10:37:27.159Z,9.430384
2023-01-17T10:38:27.086Z,9.430384
2023-01-17T10:39:27.071Z,9.430399
2023-01-17T10:40:27.057Z,9.430379
2023-01-17T10:41:27.062Z,9.430352
2023-01-17T10:42:27.065Z,9.430341
2023-01-17T10:43:27.033Z,9.430367
2023-01-17T10:44:27.089Z,9.430363
2023-01-17T10:45:27.013Z,9.430362
2023-01-17T10:46:27.058Z,9.430343
2023-01-17T10:47:26.994Z,9.430388
2023-01-17T10:48:26.978Z,9.430381
2023-01-17T10:49:26.959Z,9.430362
2023-01-17T10:50:26.982Z,9.430350
2023-01-17T10:51:26.945Z,9.430377
2023-01-17T10:52:26.938Z,9.430389
2023-01-17T10:53:26.940Z,9.430387
2023-01-17T10:54:26.915Z,9.430324
2023-01-17T10:55:26.906Z,9.430269
2023-01-17T10:56:26.947Z,9.430307
2023-01-17T10:57:26.878Z,9.430322
2023-01-17T10:59:00.711Z,9.430328
2023-01-17T10:59:26.895Z,9.430311
2023-01-17T11:00:26.871Z,9.430296
2023-01-17T11:01:26.917Z,9.430351
2023-01-17T11:02:27.049Z,9.430330
2023-01-17T11:03:26.866Z,9.430345
2023-01-17T11:04:26.849Z,9.430362
2023-01-17T11:05:26.786Z,9.430359
2023-01-17T11:06:26.807Z,9.430364
2023-01-17T11:07:26.866Z,9.430366
2023-01-17T11:08:26.788Z,9.430361
2023-01-17T11:09:26.858Z,9.430362
2023-01-17T11:10:26.777Z,9.430365
2023-01-17T11:11:26.727Z,9.430329
2023-01-17T11:12:26.739Z,9.430348
2023-01-17T11:13:26.715Z,9.430347
2023-01-17T11:14:26.719Z,9.430329
2023-01-17T11:15:26.677Z,9.430343
2023-01-17T11:16:27.688Z,9.430367
2023-01-17T11:17:27.757Z,9.430326
2023-01-17T11:18:26.745Z,9.430327
2023-01-17T11:19:26.773Z,9.430327
2023-01-17T11:20:26.699Z,9.430330
2023-01-17T11:21:26.756Z,9.430321
2023-01-17T11:22:26.685Z,9.430340
2023-01-17T11:23:26.636Z,9.430336
2023-01-17T11:24:26.766Z,9.430351
2023-01-17T11:25:26.623Z,9.430352
2023-01-17T11:26:26.618Z,9.430331
2023-01-17T11:27:26.599Z,9.430332
2023-01-17T11:28:26.579Z,9.430326
2023-01-17T11:29:26.606Z,9.430313
2023-01-17T11:30:26.571Z,9.430323
2023-01-17T11:31:26.669Z,9.430303
2023-01-17T11:32:26.520Z,9.430324
2023-01-17T11:33:27.890Z,9.430356
2023-01-17T11:34:26.531Z,9.430328
2023-01-17T11:35:26.540Z,9.430332
2023-01-17T11:36:26.479Z,9.430334
2023-01-17T11:37:26.485Z,9.430353
2023-01-17T11:38:26.476Z,9.430320
2023-01-17T11:39:26.522Z,9.430346
2023-01-17T11:40:26.410Z,9.430344
2023-01-17T11:41:26.459Z,9.430345
2023-01-17T11:42:26.456Z,9.430326
2023-01-17T11:43:26.413Z,9.430322
2023-01-17T11:44:26.426Z,9.430333